Aviation Digital Data Service (ADDS)

Output produced by METARs form (1127 UTC 15 July 2020)
found at http://www.aviationweather.gov/metar/data/
 
Forecast for: OERK (RIYADH/KING KHAL, SA)
Text: TAF OERK 151100Z 1512/1618 26010KT 7000 NSC
Forecast period: 1200 to 2000 UTC 15 July 2020
Forecast type: FROM: standard forecast or significant change
Winds: from the W (260 degrees) at 12 MPH (10 knots; 5.1 m/s)
Visibility: 4 miles (7 km)
Ceiling: unknown
Clouds: missing
Weather: no significant weather forecast for this period
Text: BECMG 1520/1522 VRB03KT
Forecast period: 2000 UTC 15 July 2020 to 1800 UTC 16 July 2020
Forecast type: BECOMING: Conditions expected to become as follows by 2200 UTC 15 July 2020
Winds: variable direction winds at 3 MPH (3 knots; 1.5 m/s)
Visibility: 4 miles (7 km)
Ceiling: unknown
Clouds: missing
Weather: no significant weather forecast for this period